Stella, North Carolina
Current Conditions -  °F | °C
As of 4:57 PM on Monday 20 Oct 2014 (Local Time) from KNJM Reporting Station
Few Clouds Few Clouds  
Wind Chill: 69°   Ceiling: Unl
Heat Index: 69°   Visibility: 10mi
Dew Point: 55°   Wind: 6mph
Humidity: 61%   Direction: 170°S
Pressure: 30.03"   Gusts: NA
Location:  34.77°N, 77.15°W
Report Text: KNJM 202057Z AUTO 17005KT 10SM FEW050 21/13 A3003 RMK AO2 SLP174 T02060128 56020 TSNO $
Loading
Personal Weather Stations






























Interactive Weather Map
Tropical Storm Tracking
New forecast layout! Learn more

10-Day Weather Forecast

Advertisements
Track Severe Weather on mobile